Strona główna
METAR-TAF:

METAR-TAF

Lotnisko :

Toledo Suburban Airport

Lambertville, Michigan, Stany Zjednoczone

Szerokość geograficzna: 41-44-09N, Długość geograficzna: 083-39-19W, wysokość: 204 m

Aktualna obserwacja pogody

Raport powstał 21 minut temu, godzina 08:16 UTC
Cisza
Temperatura 21°C
Wilgotność 88%
Ciśnienie 1014 hPa
Widzialność: 16.1 km
Zachmurzenie całkowite na wysokości 9500 ft

METAR: KDUH 280816Z AUTO 00000KT 10SM OVC095 21/19 A2993 RMK AO2 T02050190

czas: 04:37 (08:37 UTC)


TAF: brakujący

Obserwacja i prognoza pogody dla ponad 4000 lotnisk (raport METAR i TAF).

Dostępne stacje oznaczono żółtymi i czerwonymi punktami na mapie.

Najedź kursorem aby zobaczyć nazwę stacji.

Kliknij aby zobaczyć obserwacje i prognozy pogody.

Aby zmienić mapę: kliknij na zielony przycisk z czarnym krzyżykiem, aby powiększyć; na zielony przycisk z myślnikiem, aby pomniejszyć; na zielone strzałki, aby przejść do map sąsiednich.


METAR-TAF: